sensor_id;sensor_type;location;lat;lon;timestamp;pressure;altitude;pressure_sealevel;temperature;humidity
10460;BME280;54412;51.206;6.888;2023-05-20T00:00:51;101509.50;;;16.70;46.21
10460;BME280;54412;51.206;6.888;2023-05-20T00:03:18;101508.84;;;16.53;46.91
10460;BME280;54412;51.206;6.888;2023-05-20T00:05:45;101504.63;;;16.91;46.46
10460;BME280;54412;51.206;6.888;2023-05-20T00:08:11;101503.97;;;16.73;46.65
10460;BME280;54412;51.206;6.888;2023-05-20T00:10:37;101506.28;;;16.80;46.47
10460;BME280;54412;51.206;6.888;2023-05-20T00:13:03;101499.78;;;16.55;47.07
10460;BME280;54412;51.206;6.888;2023-05-20T00:15:31;101506.06;;;16.54;47.43
10460;BME280;54412;51.206;6.888;2023-05-20T00:17:57;101501.72;;;16.67;47.14
10460;BME280;54412;51.206;6.888;2023-05-20T00:20:22;101497.88;;;16.71;47.01
10460;BME280;54412;51.206;6.888;2023-05-20T00:22:48;101497.41;;;16.51;47.28
10460;BME280;54412;51.206;6.888;2023-05-20T00:25:14;101509.00;;;16.64;47.37
10460;BME280;54412;51.206;6.888;2023-05-20T00:27:40;101508.38;;;16.31;47.97
10460;BME280;54412;51.206;6.888;2023-05-20T00:30:07;101507.00;;;16.53;47.38
10460;BME280;54412;51.206;6.888;2023-05-20T00:32:33;101506.09;;;16.39;47.95
10460;BME280;54412;51.206;6.888;2023-05-20T00:35:00;101506.09;;;16.39;48.08
10460;BME280;54412;51.206;6.888;2023-05-20T00:37:26;101505.94;;;16.42;48.09
10460;BME280;54412;51.206;6.888;2023-05-20T00:39:52;101508.72;;;16.25;48.52
10460;BME280;54412;51.206;6.888;2023-05-20T00:42:24;101506.69;;;16.14;48.90
10460;BME280;54412;51.206;6.888;2023-05-20T00:44:51;101495.56;;;16.08;49.16
10460;BME280;54412;51.206;6.888;2023-05-20T00:47:20;101500.94;;;16.22;48.80
10460;BME280;54412;51.206;6.888;2023-05-20T00:49:49;101498.72;;;16.14;49.21
10460;BME280;54412;51.206;6.888;2023-05-20T00:52:17;101508.69;;;15.81;49.97
10460;BME280;54412;51.206;6.888;2023-05-20T00:54:44;101501.59;;;15.96;49.73
10460;BME280;54412;51.206;6.888;2023-05-20T00:57:10;101503.31;;;15.97;49.77
10460;BME280;54412;51.206;6.888;2023-05-20T00:59:37;101501.09;;;15.89;50.20
10460;BME280;54412;51.206;6.888;2023-05-20T01:02:04;101501.25;;;16.02;49.90
10460;BME280;54412;51.206;6.888;2023-05-20T01:04:31;101502.56;;;15.95;50.21
10460;BME280;54412;51.206;6.888;2023-05-20T01:06:58;101501.44;;;15.83;50.29
10460;BME280;54412;51.206;6.888;2023-05-20T01:09:25;101494.66;;;15.93;50.17
10460;BME280;54412;51.206;6.888;2023-05-20T01:12:21;101499.31;;;15.90;50.08
10460;BME280;54412;51.206;6.888;2023-05-20T01:14:55;101489.59;;;15.89;50.36
10460;BME280;54412;51.206;6.888;2023-05-20T01:17:26;101497.09;;;15.82;51.01
10460;BME280;54412;51.206;6.888;2023-05-20T01:19:54;101499.25;;;15.76;51.05
10460;BME280;54412;51.206;6.888;2023-05-20T01:22:25;101498.38;;;15.75;50.62
10460;BME280;54412;51.206;6.888;2023-05-20T01:24:51;101497.19;;;15.81;50.63
10460;BME280;54412;51.206;6.888;2023-05-20T01:27:21;101493.78;;;15.63;51.08
10460;BME280;54412;51.206;6.888;2023-05-20T01:29:50;101494.16;;;15.40;51.60
10460;BME280;54412;51.206;6.888;2023-05-20T01:32:42;101489.75;;;15.56;51.60
10460;BME280;54412;51.206;6.888;2023-05-20T01:35:09;101494.63;;;15.63;51.26
10460;BME280;54412;51.206;6.888;2023-05-20T01:37:39;101488.00;;;15.70;51.21
10460;BME280;54412;51.206;6.888;2023-05-20T01:40:07;101485.28;;;15.72;51.06
10460;BME280;54412;51.206;6.888;2023-05-20T01:42:34;101478.66;;;15.63;51.17
10460;BME280;54412;51.206;6.888;2023-05-20T01:45:01;101493.84;;;15.61;51.46
10460;BME280;54412;51.206;6.888;2023-05-20T01:47:27;101483.53;;;15.40;52.01
10460;BME280;54412;51.206;6.888;2023-05-20T01:49:53;101485.22;;;15.42;51.98
10460;BME280;54412;51.206;6.888;2023-05-20T01:52:20;101481.63;;;15.43;52.06
10460;BME280;54412;51.206;6.888;2023-05-20T01:54:46;101478.00;;;15.44;51.76
10460;BME280;54412;51.206;6.888;2023-05-20T01:57:22;101471.97;;;15.56;51.44
10460;BME280;54412;51.206;6.888;2023-05-20T01:59:48;101465.72;;;15.42;52.09
10460;BME280;54412;51.206;6.888;2023-05-20T02:02:15;101468.03;;;15.32;52.28
10460;BME280;54412;51.206;6.888;2023-05-20T02:04:44;101469.56;;;15.36;52.26
10460;BME280;54412;51.206;6.888;2023-05-20T02:07:15;101463.16;;;15.40;52.32
10460;BME280;54412;51.206;6.888;2023-05-20T02:09:41;101470.84;;;15.29;52.61
10460;BME280;54412;51.206;6.888;2023-05-20T02:12:07;101473.25;;;15.34;52.39
10460;BME280;54412;51.206;6.888;2023-05-20T02:14:33;101477.44;;;15.22;52.30
10460;BME280;54412;51.206;6.888;2023-05-20T02:16:59;101478.13;;;15.26;52.52
10460;BME280;54412;51.206;6.888;2023-05-20T02:19:25;101464.94;;;15.24;52.42
10460;BME280;54412;51.206;6.888;2023-05-20T02:21:50;101479.59;;;15.31;52.28
10460;BME280;54412;51.206;6.888;2023-05-20T02:24:16;101468.19;;;15.29;51.96
10460;BME280;54412;51.206;6.888;2023-05-20T02:26:42;101471.03;;;15.26;52.14
10460;BME280;54412;51.206;6.888;2023-05-20T02:29:10;101473.59;;;15.28;52.09
10460;BME280;54412;51.206;6.888;2023-05-20T02:31:36;101475.06;;;15.18;52.32
10460;BME280;54412;51.206;6.888;2023-05-20T02:34:01;101471.38;;;15.20;52.55
10460;BME280;54412;51.206;6.888;2023-05-20T02:36:28;101468.72;;;15.20;52.61
10460;BME280;54412;51.206;6.888;2023-05-20T02:38:54;101464.94;;;15.24;52.50
10460;BME280;54412;51.206;6.888;2023-05-20T02:41:21;101464.94;;;15.09;52.58
10460;BME280;54412;51.206;6.888;2023-05-20T02:43:47;101466.03;;;14.89;53.02
10460;BME280;54412;51.206;6.888;2023-05-20T02:46:13;101462.69;;;15.17;52.58
10460;BME280;54412;51.206;6.888;2023-05-20T02:48:40;101457.13;;;15.06;52.86
10460;BME280;54412;51.206;6.888;2023-05-20T02:51:06;101459.03;;;15.04;52.71
10460;BME280;54412;51.206;6.888;2023-05-20T02:53:31;101446.34;;;15.09;52.73
10460;BME280;54412;51.206;6.888;2023-05-20T02:55:57;101449.34;;;15.03;52.96
10460;BME280;54412;51.206;6.888;2023-05-20T02:58:24;101442.81;;;14.93;53.19
10460;BME280;54412;51.206;6.888;2023-05-20T03:00:51;101448.56;;;14.85;53.68
10460;BME280;54412;51.206;6.888;2023-05-20T03:03:17;101447.00;;;14.97;53.41
10460;BME280;54412;51.206;6.888;2023-05-20T03:05:43;101437.59;;;14.91;53.43
10460;BME280;54412;51.206;6.888;2023-05-20T03:08:11;101438.25;;;14.79;53.81
10460;BME280;54412;51.206;6.888;2023-05-20T03:10:37;101440.59;;;15.01;53.53
10460;BME280;54412;51.206;6.888;2023-05-20T03:13:07;101438.94;;;14.83;53.84
10460;BME280;54412;51.206;6.888;2023-05-20T03:15:34;101437.22;;;14.66;54.48
10460;BME280;54412;51.206;6.888;2023-05-20T03:18:01;101441.59;;;14.67;54.37
10460;BME280;54412;51.206;6.888;2023-05-20T03:20:27;101436.38;;;14.81;54.04
10460;BME280;54412;51.206;6.888;2023-05-20T03:22:54;101440.72;;;14.66;54.36
10460;BME280;54412;51.206;6.888;2023-05-20T03:25:21;101438.06;;;14.66;54.65
10460;BME280;54412;51.206;6.888;2023-05-20T03:27:47;101442.78;;;14.61;54.62
10460;BME280;54412;51.206;6.888;2023-05-20T03:30:13;101441.88;;;14.78;54.51
10460;BME280;54412;51.206;6.888;2023-05-20T03:32:39;101444.25;;;14.83;54.17
10460;BME280;54412;51.206;6.888;2023-05-20T03:35:05;101448.84;;;14.63;54.64
10460;BME280;54412;51.206;6.888;2023-05-20T03:37:31;101442.78;;;14.61;54.54
10460;BME280;54412;51.206;6.888;2023-05-20T03:39:57;101438.44;;;14.43;55.06
10460;BME280;54412;51.206;6.888;2023-05-20T03:42:22;101431.09;;;14.48;55.18
10460;BME280;54412;51.206;6.888;2023-05-20T03:44:48;101428.09;;;14.39;55.48
10460;BME280;54412;51.206;6.888;2023-05-20T03:47:14;101421.81;;;14.40;55.48
10460;BME280;54412;51.206;6.888;2023-05-20T03:49:39;101416.50;;;14.73;54.49
10460;BME280;54412;51.206;6.888;2023-05-20T03:52:06;101413.09;;;14.53;54.87
10460;BME280;54412;51.206;6.888;2023-05-20T03:54:32;101416.13;;;14.30;55.56
10460;BME280;54412;51.206;6.888;2023-05-20T03:56:59;101412.34;;;14.51;55.33
10460;BME280;54412;51.206;6.888;2023-05-20T03:59:26;101411.59;;;14.65;54.54
10460;BME280;54412;51.206;6.888;2023-05-20T04:01:52;101411.31;;;14.54;54.89
10460;BME280;54412;51.206;6.888;2023-05-20T04:04:18;101412.78;;;14.59;54.92
10460;BME280;54412;51.206;6.888;2023-05-20T04:06:44;101412.75;;;14.92;54.00
10460;BME280;54412;51.206;6.888;2023-05-20T04:09:11;101411.78;;;14.78;53.91
10460;BME280;54412;51.206;6.888;2023-05-20T04:11:36;101410.13;;;14.75;54.03
10460;BME280;54412;51.206;6.888;2023-05-20T04:14:02;101407.84;;;14.69;53.98
10460;BME280;54412;51.206;6.888;2023-05-20T04:16:28;101412.16;;;14.87;53.56
10460;BME280;54412;51.206;6.888;2023-05-20T04:18:54;101407.47;;;14.75;53.53
10460;BME280;54412;51.206;6.888;2023-05-20T04:21:20;101409.91;;;14.95;53.12
10460;BME280;54412;51.206;6.888;2023-05-20T04:23:46;101410.53;;;15.00;53.03
10460;BME280;54412;51.206;6.888;2023-05-20T04:26:12;101405.53;;;14.94;53.17
10460;BME280;54412;51.206;6.888;2023-05-20T04:28:38;101407.78;;;15.17;52.43
10460;BME280;54412;51.206;6.888;2023-05-20T04:31:06;101399.78;;;15.17;52.75
10460;BME280;54412;51.206;6.888;2023-05-20T04:33:32;101400.91;;;15.13;52.58
10460;BME280;54412;51.206;6.888;2023-05-20T04:36:03;101411.72;;;14.95;52.99
10460;BME280;54412;51.206;6.888;2023-05-20T04:38:30;101395.06;;;15.22;52.44
10460;BME280;54412;51.206;6.888;2023-05-20T04:40:58;101393.63;;;15.01;52.99
10460;BME280;54412;51.206;6.888;2023-05-20T04:43:24;101392.84;;;14.99;53.20
10460;BME280;54412;51.206;6.888;2023-05-20T04:45:51;101393.13;;;14.95;53.48
10460;BME280;54412;51.206;6.888;2023-05-20T04:48:20;101393.31;;;15.07;53.13
10460;BME280;54412;51.206;6.888;2023-05-20T04:50:47;101393.81;;;15.14;52.69
10460;BME280;54412;51.206;6.888;2023-05-20T04:53:14;101394.47;;;15.17;52.80
10460;BME280;54412;51.206;6.888;2023-05-20T04:55:41;101387.44;;;15.32;52.28
10460;BME280;54412;51.206;6.888;2023-05-20T04:58:08;101393.16;;;15.40;52.56
10460;BME280;54412;51.206;6.888;2023-05-20T05:00:43;101401.22;;;15.38;53.63
10460;BME280;54412;51.206;6.888;2023-05-20T05:03:10;101401.00;;;15.43;54.02
10460;BME280;54412;51.206;6.888;2023-05-20T05:05:39;101398.84;;;15.49;52.90
10460;BME280;54412;51.206;6.888;2023-05-20T05:08:07;101403.97;;;15.52;53.76
10460;BME280;54412;51.206;6.888;2023-05-20T05:10:34;101401.09;;;15.71;53.35
10460;BME280;54412;51.206;6.888;2023-05-20T05:13:00;101393.34;;;15.82;52.91
10460;BME280;54412;51.206;6.888;2023-05-20T05:15:27;101392.75;;;15.77;52.39
10460;BME280;54412;51.206;6.888;2023-05-20T05:17:52;101397.22;;;15.77;52.84
10460;BME280;54412;51.206;6.888;2023-05-20T05:20:19;101380.34;;;15.92;52.37
10460;BME280;54412;51.206;6.888;2023-05-20T05:22:44;101387.47;;;15.61;53.63
10460;BME280;54412;51.206;6.888;2023-05-20T05:25:11;101393.66;;;15.92;53.39
10460;BME280;54412;51.206;6.888;2023-05-20T05:27:38;101384.81;;;15.91;52.98
10460;BME280;54412;51.206;6.888;2023-05-20T05:30:05;101384.41;;;15.83;52.71
10460;BME280;54412;51.206;6.888;2023-05-20T05:32:32;101379.75;;;15.87;52.26
10460;BME280;54412;51.206;6.888;2023-05-20T05:34:58;101382.03;;;15.79;53.51
10460;BME280;54412;51.206;6.888;2023-05-20T05:37:24;101371.38;;;15.79;52.87
10460;BME280;54412;51.206;6.888;2023-05-20T05:39:50;101367.31;;;16.01;52.85
10460;BME280;54412;51.206;6.888;2023-05-20T05:42:15;101366.75;;;15.96;53.03
10460;BME280;54412;51.206;6.888;2023-05-20T05:44:41;101357.25;;;15.92;53.44
10460;BME280;54412;51.206;6.888;2023-05-20T05:47:07;101357.91;;;15.96;53.12
10460;BME280;54412;51.206;6.888;2023-05-20T05:49:33;101363.84;;;16.01;52.62
10460;BME280;54412;51.206;6.888;2023-05-20T05:51:59;101364.06;;;15.82;52.75
10460;BME280;54412;51.206;6.888;2023-05-20T05:54:25;101359.13;;;15.76;52.85
10460;BME280;54412;51.206;6.888;2023-05-20T05:56:51;101357.63;;;15.86;52.96
10460;BME280;54412;51.206;6.888;2023-05-20T05:59:18;101365.53;;;16.02;52.58
10460;BME280;54412;51.206;6.888;2023-05-20T06:01:44;101357.50;;;15.74;52.97
10460;BME280;54412;51.206;6.888;2023-05-20T06:04:10;101356.97;;;15.83;53.22
10460;BME280;54412;51.206;6.888;2023-05-20T06:06:36;101361.81;;;15.90;53.42
10460;BME280;54412;51.206;6.888;2023-05-20T06:09:02;101350.03;;;16.08;53.09
10460;BME280;54412;51.206;6.888;2023-05-20T06:11:28;101360.63;;;16.10;52.93
10460;BME280;54412;51.206;6.888;2023-05-20T06:13:54;101363.06;;;16.27;53.06
10460;BME280;54412;51.206;6.888;2023-05-20T06:16:20;101362.03;;;16.43;52.39
10460;BME280;54412;51.206;6.888;2023-05-20T06:18:46;101356.81;;;16.56;52.13
10460;BME280;54412;51.206;6.888;2023-05-20T06:21:15;101362.31;;;16.39;52.79
10460;BME280;54412;51.206;6.888;2023-05-20T06:23:41;101367.16;;;16.89;51.84
10460;BME280;54412;51.206;6.888;2023-05-20T06:26:06;101364.59;;;16.87;51.84
10460;BME280;54412;51.206;6.888;2023-05-20T06:28:32;101356.34;;;17.04;51.53
10460;BME280;54412;51.206;6.888;2023-05-20T06:30:58;101356.81;;;16.97;51.31
10460;BME280;54412;51.206;6.888;2023-05-20T06:33:25;101359.53;;;17.09;51.30
10460;BME280;54412;51.206;6.888;2023-05-20T06:35:52;101357.25;;;16.91;51.49
10460;BME280;54412;51.206;6.888;2023-05-20T06:38:18;101352.13;;;17.14;51.06
10460;BME280;54412;51.206;6.888;2023-05-20T06:40:45;101355.06;;;16.83;51.80
10460;BME280;54412;51.206;6.888;2023-05-20T06:43:11;101350.88;;;16.79;51.78
10460;BME280;54412;51.206;6.888;2023-05-20T06:45:37;101345.44;;;16.81;52.64
10460;BME280;54412;51.206;6.888;2023-05-20T06:48:02;101348.81;;;16.70;52.19
10460;BME280;54412;51.206;6.888;2023-05-20T06:50:28;101357.88;;;16.67;52.08
10460;BME280;54412;51.206;6.888;2023-05-20T06:52:54;101347.03;;;16.56;52.75
10460;BME280;54412;51.206;6.888;2023-05-20T06:55:19;101337.31;;;16.55;52.71
10460;BME280;54412;51.206;6.888;2023-05-20T06:57:45;101324.09;;;16.54;52.78
10460;BME280;54412;51.206;6.888;2023-05-20T07:00:11;101332.09;;;16.40;53.30
10460;BME280;54412;51.206;6.888;2023-05-20T07:02:39;101335.00;;;16.35;53.06
10460;BME280;54412;51.206;6.888;2023-05-20T07:05:05;101333.03;;;16.25;53.61
10460;BME280;54412;51.206;6.888;2023-05-20T07:07:31;101337.03;;;16.18;53.89
10460;BME280;54412;51.206;6.888;2023-05-20T07:09:57;101338.16;;;16.42;53.55
10460;BME280;54412;51.206;6.888;2023-05-20T07:12:23;101347.75;;;16.44;53.09
10460;BME280;54412;51.206;6.888;2023-05-20T07:14:49;101345.59;;;16.37;53.58
10460;BME280;54412;51.206;6.888;2023-05-20T07:17:15;101343.59;;;16.40;53.87
10460;BME280;54412;51.206;6.888;2023-05-20T07:19:41;101330.25;;;16.68;53.31
10460;BME280;54412;51.206;6.888;2023-05-20T07:22:07;101338.03;;;16.71;53.38
10460;BME280;54412;51.206;6.888;2023-05-20T07:24:32;101346.16;;;16.70;53.73
10460;BME280;54412;51.206;6.888;2023-05-20T07:26:58;101341.03;;;16.67;53.35
10460;BME280;54412;51.206;6.888;2023-05-20T07:29:24;101330.16;;;16.70;53.18
10460;BME280;54412;51.206;6.888;2023-05-20T07:31:49;101327.13;;;16.76;53.32
10460;BME280;54412;51.206;6.888;2023-05-20T07:34:15;101323.91;;;16.71;53.22
10460;BME280;54412;51.206;6.888;2023-05-20T07:36:41;101328.91;;;16.76;53.45
10460;BME280;54412;51.206;6.888;2023-05-20T07:39:08;101321.03;;;16.74;53.51
10460;BME280;54412;51.206;6.888;2023-05-20T07:41:36;101322.22;;;16.83;53.67
10460;BME280;54412;51.206;6.888;2023-05-20T07:44:04;101312.88;;;16.90;53.61
10460;BME280;54412;51.206;6.888;2023-05-20T07:46:30;101314.66;;;17.03;53.71
10460;BME280;54412;51.206;6.888;2023-05-20T07:48:56;101315.75;;;17.13;53.79
10460;BME280;54412;51.206;6.888;2023-05-20T07:51:22;101318.63;;;17.10;52.74
10460;BME280;54412;51.206;6.888;2023-05-20T07:53:47;101324.53;;;17.28;52.92
10460;BME280;54412;51.206;6.888;2023-05-20T07:56:13;101324.41;;;17.17;53.16
10460;BME280;54412;51.206;6.888;2023-05-20T07:58:42;101317.91;;;17.47;52.21
10460;BME280;54412;51.206;6.888;2023-05-20T08:01:08;101316.31;;;17.31;52.08
10460;BME280;54412;51.206;6.888;2023-05-20T08:03:35;101313.22;;;17.24;52.26
10460;BME280;54412;51.206;6.888;2023-05-20T08:06:04;101322.53;;;17.31;52.56
10460;BME280;54412;51.206;6.888;2023-05-20T08:08:29;101312.41;;;17.36;52.60
10460;BME280;54412;51.206;6.888;2023-05-20T08:10:55;101319.59;;;17.22;52.50
10460;BME280;54412;51.206;6.888;2023-05-20T08:13:22;101319.03;;;17.43;52.49
10460;BME280;54412;51.206;6.888;2023-05-20T08:15:48;101325.22;;;17.44;53.03
10460;BME280;54412;51.206;6.888;2023-05-20T08:18:16;101332.91;;;17.75;51.94
10460;BME280;54412;51.206;6.888;2023-05-20T08:20:42;101331.38;;;17.71;51.83
10460;BME280;54412;51.206;6.888;2023-05-20T08:23:08;101334.81;;;17.73;51.54
10460;BME280;54412;51.206;6.888;2023-05-20T08:25:33;101339.41;;;17.71;51.80
10460;BME280;54412;51.206;6.888;2023-05-20T08:28:03;101335.72;;;17.59;52.41
10460;BME280;54412;51.206;6.888;2023-05-20T08:30:30;101339.47;;;17.57;52.49
10460;BME280;54412;51.206;6.888;2023-05-20T08:32:56;101331.78;;;17.65;52.59
10460;BME280;54412;51.206;6.888;2023-05-20T08:35:22;101332.16;;;17.86;52.79
10460;BME280;54412;51.206;6.888;2023-05-20T08:37:48;101330.66;;;18.07;52.81
10460;BME280;54412;51.206;6.888;2023-05-20T08:40:14;101334.28;;;18.18;51.86
10460;BME280;54412;51.206;6.888;2023-05-20T08:42:42;101338.53;;;18.46;51.66
10460;BME280;54412;51.206;6.888;2023-05-20T08:45:10;101334.81;;;18.48;50.59
10460;BME280;54412;51.206;6.888;2023-05-20T08:47:41;101345.78;;;18.31;51.05
10460;BME280;54412;51.206;6.888;2023-05-20T08:50:12;101338.97;;;18.40;50.74
10460;BME280;54412;51.206;6.888;2023-05-20T08:52:47;101334.91;;;18.34;50.86
10460;BME280;54412;51.206;6.888;2023-05-20T08:55:47;101339.09;;;18.38;51.13
10460;BME280;54412;51.206;6.888;2023-05-20T08:58:17;101328.81;;;18.32;51.20
10460;BME280;54412;51.206;6.888;2023-05-20T09:00:44;101335.94;;;18.69;51.35
10460;BME280;54412;51.206;6.888;2023-05-20T09:03:10;101330.13;;;19.12;50.43
10460;BME280;54412;51.206;6.888;2023-05-20T09:05:35;101328.75;;;19.06;49.92
10460;BME280;54412;51.206;6.888;2023-05-20T09:08:10;101338.25;;;19.10;49.91
10460;BME280;54412;51.206;6.888;2023-05-20T09:10:38;101336.22;;;19.14;49.92
10460;BME280;54412;51.206;6.888;2023-05-20T09:13:05;101336.78;;;19.30;49.81
10460;BME280;54412;51.206;6.888;2023-05-20T09:15:32;101332.19;;;19.32;50.60
10460;BME280;54412;51.206;6.888;2023-05-20T09:18:03;101325.78;;;19.22;49.84
10460;BME280;54412;51.206;6.888;2023-05-20T09:20:29;101333.94;;;19.20;49.97
10460;BME280;54412;51.206;6.888;2023-05-20T09:23:01;101341.78;;;19.11;50.33
10460;BME280;54412;51.206;6.888;2023-05-20T09:25:27;101329.69;;;19.29;49.80
10460;BME280;54412;51.206;6.888;2023-05-20T09:27:53;101337.16;;;19.13;49.89
10460;BME280;54412;51.206;6.888;2023-05-20T09:30:20;101336.31;;;19.12;50.85
10460;BME280;54412;51.206;6.888;2023-05-20T09:32:56;101340.41;;;19.05;50.75
10460;BME280;54412;51.206;6.888;2023-05-20T09:35:23;101337.16;;;19.13;50.26
10460;BME280;54412;51.206;6.888;2023-05-20T09:37:54;101327.66;;;19.09;50.96
10460;BME280;54412;51.206;6.888;2023-05-20T09:40:26;101333.44;;;19.15;51.17
10460;BME280;54412;51.206;6.888;2023-05-20T09:43:06;101339.75;;;19.38;50.41
10460;BME280;54412;51.206;6.888;2023-05-20T09:45:32;101329.53;;;19.32;50.45
10460;BME280;54412;51.206;6.888;2023-05-20T09:48:00;101333.06;;;19.20;51.06
10460;BME280;54412;51.206;6.888;2023-05-20T09:50:27;101329.41;;;19.33;49.93
10460;BME280;54412;51.206;6.888;2023-05-20T09:52:54;101319.72;;;19.43;50.31
10460;BME280;54412;51.206;6.888;2023-05-20T09:55:23;101323.97;;;19.46;50.77
10460;BME280;54412;51.206;6.888;2023-05-20T09:57:49;101324.03;;;19.57;50.37
10460;BME280;54412;51.206;6.888;2023-05-20T10:00:16;101317.59;;;19.12;50.42
10460;BME280;54412;51.206;6.888;2023-05-20T10:02:49;101326.78;;;19.55;50.37
10460;BME280;54412;51.206;6.888;2023-05-20T10:08:48;101322.03;;;19.94;49.41
10460;BME280;54412;51.206;6.888;2023-05-20T10:14:22;101317.50;;;19.83;49.29
10460;BME280;54412;51.206;6.888;2023-05-20T10:17:09;101321.38;;;19.79;49.19
10460;BME280;54412;51.206;6.888;2023-05-20T10:19:38;101320.88;;;19.74;49.75
10460;BME280;54412;51.206;6.888;2023-05-20T10:22:07;101317.19;;;19.53;49.21
10460;BME280;54412;51.206;6.888;2023-05-20T10:24:42;101322.09;;;19.70;50.19
10460;BME280;54412;51.206;6.888;2023-05-20T10:27:13;101319.59;;;19.45;50.62
10460;BME280;54412;51.206;6.888;2023-05-20T10:29:54;101316.25;;;19.65;50.02
10460;BME280;54412;51.206;6.888;2023-05-20T10:32:31;101323.91;;;19.58;49.90
10460;BME280;54412;51.206;6.888;2023-05-20T10:35:08;101309.41;;;19.50;50.35
10460;BME280;54412;51.206;6.888;2023-05-20T10:37:43;101313.66;;;19.52;50.70
10460;BME280;54412;51.206;6.888;2023-05-20T10:40:12;101320.25;;;19.59;49.97
10460;BME280;54412;51.206;6.888;2023-05-20T10:42:39;101320.16;;;19.14;50.45
10460;BME280;54412;51.206;6.888;2023-05-20T10:45:09;101333.28;;;18.93;51.72
10460;BME280;54412;51.206;6.888;2023-05-20T10:47:35;101329.31;;;18.99;51.07
10460;BME280;54412;51.206;6.888;2023-05-20T10:50:01;101324.81;;;18.75;51.08
10460;BME280;54412;51.206;6.888;2023-05-20T10:52:35;101316.13;;;18.85;51.43
10460;BME280;54412;51.206;6.888;2023-05-20T10:55:02;101316.94;;;18.61;52.05
10460;BME280;54412;51.206;6.888;2023-05-20T10:57:29;101322.22;;;18.87;51.76
10460;BME280;54412;51.206;6.888;2023-05-20T10:59:57;101324.59;;;19.02;51.33
10460;BME280;54412;51.206;6.888;2023-05-20T11:02:24;101319.78;;;18.71;52.49
10460;BME280;54412;51.206;6.888;2023-05-20T11:04:57;101315.06;;;18.74;52.12
10460;BME280;54412;51.206;6.888;2023-05-20T11:07:28;101319.78;;;18.71;52.24
10460;BME280;54412;51.206;6.888;2023-05-20T11:09:57;101316.47;;;18.67;52.09
10460;BME280;54412;51.206;6.888;2023-05-20T11:12:25;101319.38;;;18.64;52.07
10460;BME280;54412;51.206;6.888;2023-05-20T11:14:51;101321.44;;;18.61;52.14
10460;BME280;54412;51.206;6.888;2023-05-20T11:17:18;101316.59;;;18.66;52.30
10460;BME280;54412;51.206;6.888;2023-05-20T11:19:45;101320.88;;;18.68;52.58
10460;BME280;54412;51.206;6.888;2023-05-20T11:22:11;101322.56;;;18.69;52.80
10460;BME280;54412;51.206;6.888;2023-05-20T11:24:37;101319.47;;;18.75;52.59
10460;BME280;54412;51.206;6.888;2023-05-20T11:27:03;101306.44;;;18.95;52.79
10460;BME280;54412;51.206;6.888;2023-05-20T11:29:29;101301.03;;;19.07;52.09
10460;BME280;54412;51.206;6.888;2023-05-20T11:31:58;101296.84;;;19.16;51.66
10460;BME280;54412;51.206;6.888;2023-05-20T11:34:24;101299.91;;;19.22;51.81
10460;BME280;54412;51.206;6.888;2023-05-20T11:36:56;101294.19;;;19.27;51.60
10460;BME280;54412;51.206;6.888;2023-05-20T11:39:22;101289.53;;;19.41;51.76
10460;BME280;54412;51.206;6.888;2023-05-20T11:41:47;101286.19;;;19.61;51.22
10460;BME280;54412;51.206;6.888;2023-05-20T11:44:13;101276.38;;;19.84;50.89
10460;BME280;54412;51.206;6.888;2023-05-20T11:46:48;101272.75;;;20.07;50.14
10460;BME280;54412;51.206;6.888;2023-05-20T11:49:15;101281.00;;;20.15;50.40
10460;BME280;54412;51.206;6.888;2023-05-20T11:51:42;101275.91;;;20.12;49.62
10460;BME280;54412;51.206;6.888;2023-05-20T11:54:09;101264.34;;;20.12;49.42
10460;BME280;54412;51.206;6.888;2023-05-20T11:56:37;101264.84;;;20.28;49.97
10460;BME280;54412;51.206;6.888;2023-05-20T11:59:05;101255.94;;;20.49;49.86
10460;BME280;54412;51.206;6.888;2023-05-20T12:01:34;101254.94;;;20.61;48.82
10460;BME280;54412;51.206;6.888;2023-05-20T12:04:08;101249.00;;;20.58;49.23
10460;BME280;54412;51.206;6.888;2023-05-20T12:06:35;101239.81;;;20.60;49.35
10460;BME280;54412;51.206;6.888;2023-05-20T12:09:05;101240.56;;;20.51;48.70
10460;BME280;54412;51.206;6.888;2023-05-20T12:11:33;101239.38;;;20.87;49.43
10460;BME280;54412;51.206;6.888;2023-05-20T12:14:01;101227.50;;;21.12;48.48
10460;BME280;54412;51.206;6.888;2023-05-20T12:16:27;101239.59;;;21.27;48.52
10460;BME280;54412;51.206;6.888;2023-05-20T12:18:53;101228.00;;;21.47;48.83
10460;BME280;54412;51.206;6.888;2023-05-20T12:21:18;101226.13;;;21.38;48.10
10460;BME280;54412;51.206;6.888;2023-05-20T12:23:44;101229.97;;;21.65;48.59
10460;BME280;54412;51.206;6.888;2023-05-20T12:26:10;101235.16;;;21.37;48.74
10460;BME280;54412;51.206;6.888;2023-05-20T12:28:35;101231.16;;;21.31;48.42
10460;BME280;54412;51.206;6.888;2023-05-20T12:31:01;101240.56;;;21.05;49.01
10460;BME280;54412;51.206;6.888;2023-05-20T12:33:27;101236.31;;;21.03;48.18
10460;BME280;54412;51.206;6.888;2023-05-20T12:35:52;101233.81;;;21.11;48.77
10460;BME280;54412;51.206;6.888;2023-05-20T12:38:18;101234.56;;;21.13;48.37
10460;BME280;54412;51.206;6.888;2023-05-20T12:40:43;101227.41;;;21.02;49.04
10460;BME280;54412;51.206;6.888;2023-05-20T12:43:09;101225.31;;;21.06;48.82
10460;BME280;54412;51.206;6.888;2023-05-20T12:45:35;101227.06;;;20.96;48.62
10460;BME280;54412;51.206;6.888;2023-05-20T12:48:01;101215.69;;;21.03;48.96
10460;BME280;54412;51.206;6.888;2023-05-20T12:50:27;101227.38;;;21.13;48.52
10460;BME280;54412;51.206;6.888;2023-05-20T12:52:53;101218.50;;;21.02;48.90
10460;BME280;54412;51.206;6.888;2023-05-20T12:55:18;101225.50;;;21.14;48.98
10460;BME280;54412;51.206;6.888;2023-05-20T12:57:45;101214.34;;;21.29;49.21